Airfield :
LOGIN :

Register | Disclaimer

   EN    FR    IT 

 










Legend :    VFR   Marginal VFR   IFR   Intensive IFR   Very Intensive IFR
Visi :
Ceiling :
>= 8 km
>= 3000ft
5 to 8 km
1000 to 3000 ft
1500m to 5 km
500 to 1000 ft
800 to 1500m
200 to 500 ft
< 800m
< 200 ft
Symbols :   Thunderstorms  Fog  Heavy snow  Heavy precipitations  Wind > 20 kt
SIGMETs :     Misc.  Thunderstorms  Icing  Turbulence  Mountain Waves  Volcanic Ashes






- Airport Elevation : 13 ft
- IATA code : OST


EBOS - Oostend bruges Int.

CURRENT METAR :
  • 080220Z 20017KT 9999 BKN026 08/05 Q1006 BECMG 21020G30KT BKN014

EXPIRED METARs :
  • 080150Z 20014KT 9999 BKN026 08/05 Q1007 BECMG 21020G30KT BKN014
  • 080120Z 21014KT 9999 BKN027 08/05 Q1008 BECMG 21020G30KT BKN014
  • 080050Z 20015KT 9999 BKN026 08/06 Q1008 BECMG 21020G30KT BKN014
  • 080020Z 20015KT 9999 BKN028 08/06 Q1009 BECMG 21020G30KT BKN014
  • 072350Z 21015KT 9999 FEW020 BKN028 08/06 Q1010 BECMG 21020G30KT BKN014

TAF TAF EBOS
Valid from the 08 at 00:00 until the 09 at 06:00 UTC


072320Z 0800/0906 21019G33KT 9999 SCT020
TEMPO 0803/0809 4000 RA RADZ BKN011
BECMG 0808/0810 26022G38KT
TEMPO 0815/0906 3000 SHRAGS BKN01CB
BECMG 0821/0823 21016G28KT
BECMG 0904/0906 27016G28KT



MET'MAP, your aeronautical weather chart ! - Copyright ORBIFLY December 2007 - Disclaimer

ORBIFLY MET'MAP TEAM :

Programming & Development : Alexandra Zaïnal
Concept & original design : Baudouin d'Aumeries
Assistance for programming : Marc-Olivier Méhu
Technical & hardware support : Manuel Goepfert

Contact : metmap@orbifly.com




SOURCES & CREDITS :

   NOAA